sensor_id;sensor_type;location;lat;lon;timestamp;P1;durP1;ratioP1;P2;durP2;ratioP2
13197;SDS011;6664;52.514;13.440;2022-09-13T00:02:00;2.77;;;2.57;;
13197;SDS011;6664;52.514;13.440;2022-09-13T00:04:26;2.60;;;2.40;;
13197;SDS011;6664;52.514;13.440;2022-09-13T00:06:55;3.27;;;3.03;;
13197;SDS011;6664;52.514;13.440;2022-09-13T00:09:22;3.07;;;2.87;;
13197;SDS011;6664;52.514;13.440;2022-09-13T00:11:49;2.80;;;2.60;;
13197;SDS011;6664;52.514;13.440;2022-09-13T00:14:17;3.03;;;2.83;;
13197;SDS011;6664;52.514;13.440;2022-09-13T00:16:43;5.00;;;3.30;;
13197;SDS011;6664;52.514;13.440;2022-09-13T00:19:13;2.87;;;2.57;;
13197;SDS011;6664;52.514;13.440;2022-09-13T00:21:39;2.93;;;2.73;;
13197;SDS011;6664;52.514;13.440;2022-09-13T00:24:08;2.90;;;2.70;;
13197;SDS011;6664;52.514;13.440;2022-09-13T00:26:37;2.93;;;2.73;;
13197;SDS011;6664;52.514;13.440;2022-09-13T00:29:04;2.87;;;2.50;;
13197;SDS011;6664;52.514;13.440;2022-09-13T00:31:31;3.23;;;3.03;;
13197;SDS011;6664;52.514;13.440;2022-09-13T00:34:01;3.07;;;2.87;;
13197;SDS011;6664;52.514;13.440;2022-09-13T00:36:28;3.27;;;2.97;;
13197;SDS011;6664;52.514;13.440;2022-09-13T00:38:55;3.37;;;3.07;;
13197;SDS011;6664;52.514;13.440;2022-09-13T00:41:22;2.77;;;2.57;;
13197;SDS011;6664;52.514;13.440;2022-09-13T00:43:53;3.30;;;2.90;;
13197;SDS011;6664;52.514;13.440;2022-09-13T00:49:11;2.80;;;2.60;;
13197;SDS011;6664;52.514;13.440;2022-09-13T00:51:45;2.90;;;2.70;;
13197;SDS011;6664;52.514;13.440;2022-09-13T00:54:16;2.90;;;2.70;;
13197;SDS011;6664;52.514;13.440;2022-09-13T00:56:46;2.83;;;2.60;;
13197;SDS011;6664;52.514;13.440;2022-09-13T00:59:25;2.90;;;2.70;;
13197;SDS011;6664;52.514;13.440;2022-09-13T01:02:01;2.50;;;2.30;;
13197;SDS011;6664;52.514;13.440;2022-09-13T01:04:29;2.83;;;2.63;;
13197;SDS011;6664;52.514;13.440;2022-09-13T01:07:00;3.03;;;2.83;;
13197;SDS011;6664;52.514;13.440;2022-09-13T01:09:31;4.40;;;2.70;;
13197;SDS011;6664;52.514;13.440;2022-09-13T01:12:08;2.13;;;2.03;;
13197;SDS011;6664;52.514;13.440;2022-09-13T01:14:46;2.40;;;2.20;;
13197;SDS011;6664;52.514;13.440;2022-09-13T01:17:15;2.40;;;2.30;;
13197;SDS011;6664;52.514;13.440;2022-09-13T01:19:41;2.53;;;2.33;;
13197;SDS011;6664;52.514;13.440;2022-09-13T01:30:53;2.83;;;2.63;;
13197;SDS011;6664;52.514;13.440;2022-09-13T01:33:44;4.10;;;2.70;;
13197;SDS011;6664;52.514;13.440;2022-09-13T01:36:57;3.57;;;2.70;;
13197;SDS011;6664;52.514;13.440;2022-09-13T01:42:15;2.57;;;2.27;;
13197;SDS011;6664;52.514;13.440;2022-09-13T01:45:05;4.43;;;2.93;;
13197;SDS011;6664;52.514;13.440;2022-09-13T01:50:24;2.70;;;2.50;;
13197;SDS011;6664;52.514;13.440;2022-09-13T01:53:19;3.20;;;3.00;;
13197;SDS011;6664;52.514;13.440;2022-09-13T01:58:43;2.83;;;2.50;;
13197;SDS011;6664;52.514;13.440;2022-09-13T02:01:24;2.87;;;2.67;;
13197;SDS011;6664;52.514;13.440;2022-09-13T02:04:06;3.57;;;3.27;;
13197;SDS011;6664;52.514;13.440;2022-09-13T02:06:43;2.90;;;2.70;;
13197;SDS011;6664;52.514;13.440;2022-09-13T02:09:16;4.80;;;2.67;;
13197;SDS011;6664;52.514;13.440;2022-09-13T02:11:52;4.93;;;2.90;;
13197;SDS011;6664;52.514;13.440;2022-09-13T02:14:45;2.87;;;2.67;;
13197;SDS011;6664;52.514;13.440;2022-09-13T02:17:27;2.37;;;2.20;;
13197;SDS011;6664;52.514;13.440;2022-09-13T02:20:04;2.80;;;2.60;;
13197;SDS011;6664;52.514;13.440;2022-09-13T02:22:38;3.20;;;2.90;;
13197;SDS011;6664;52.514;13.440;2022-09-13T02:25:12;2.73;;;2.53;;
13197;SDS011;6664;52.514;13.440;2022-09-13T02:27:42;2.90;;;2.70;;
13197;SDS011;6664;52.514;13.440;2022-09-13T02:30:13;3.47;;;3.10;;
13197;SDS011;6664;52.514;13.440;2022-09-13T02:35:20;3.40;;;2.90;;
13197;SDS011;6664;52.514;13.440;2022-09-13T02:37:57;3.97;;;3.13;;
13197;SDS011;6664;52.514;13.440;2022-09-13T02:40:42;2.87;;;2.67;;
13197;SDS011;6664;52.514;13.440;2022-09-13T02:43:19;3.13;;;2.93;;
13197;SDS011;6664;52.514;13.440;2022-09-13T02:48:49;2.90;;;2.70;;
13197;SDS011;6664;52.514;13.440;2022-09-13T02:59:23;4.33;;;3.20;;
13197;SDS011;6664;52.514;13.440;2022-09-13T03:02:12;3.07;;;2.87;;
13197;SDS011;6664;52.514;13.440;2022-09-13T03:04:44;3.00;;;2.80;;
13197;SDS011;6664;52.514;13.440;2022-09-13T03:07:11;3.13;;;2.93;;
13197;SDS011;6664;52.514;13.440;2022-09-13T03:09:45;3.03;;;2.77;;
13197;SDS011;6664;52.514;13.440;2022-09-13T03:17:51;2.77;;;2.60;;
13197;SDS011;6664;52.514;13.440;2022-09-13T03:28:54;3.10;;;2.90;;
13197;SDS011;6664;52.514;13.440;2022-09-13T03:31:32;3.57;;;3.23;;
13197;SDS011;6664;52.514;13.440;2022-09-13T03:34:42;3.00;;;2.80;;
13197;SDS011;6664;52.514;13.440;2022-09-13T03:37:16;3.20;;;3.00;;
13197;SDS011;6664;52.514;13.440;2022-09-13T03:40:00;3.83;;;2.97;;
13197;SDS011;6664;52.514;13.440;2022-09-13T03:42:44;3.47;;;3.23;;
13197;SDS011;6664;52.514;13.440;2022-09-13T03:45:16;4.37;;;2.93;;
13197;SDS011;6664;52.514;13.440;2022-09-13T03:47:48;2.97;;;2.77;;
13197;SDS011;6664;52.514;13.440;2022-09-13T03:50:21;3.40;;;2.87;;
13197;SDS011;6664;52.514;13.440;2022-09-13T03:52:51;2.90;;;2.70;;
13197;SDS011;6664;52.514;13.440;2022-09-13T03:55:23;4.00;;;3.70;;
13197;SDS011;6664;52.514;13.440;2022-09-13T03:57:51;2.90;;;2.77;;
13197;SDS011;6664;52.514;13.440;2022-09-13T04:00:20;3.00;;;2.80;;
13197;SDS011;6664;52.514;13.440;2022-09-13T04:02:47;3.03;;;2.83;;
13197;SDS011;6664;52.514;13.440;2022-09-13T04:05:16;3.03;;;2.73;;
13197;SDS011;6664;52.514;13.440;2022-09-13T04:07:45;3.43;;;3.13;;
13197;SDS011;6664;52.514;13.440;2022-09-13T04:10:12;3.47;;;3.20;;
13197;SDS011;6664;52.514;13.440;2022-09-13T04:12:39;3.20;;;3.00;;
13197;SDS011;6664;52.514;13.440;2022-09-13T04:15:06;4.00;;;3.40;;
13197;SDS011;6664;52.514;13.440;2022-09-13T04:17:36;3.67;;;3.30;;
13197;SDS011;6664;52.514;13.440;2022-09-13T04:20:03;3.30;;;3.00;;
13197;SDS011;6664;52.514;13.440;2022-09-13T04:22:30;2.90;;;2.70;;
13197;SDS011;6664;52.514;13.440;2022-09-13T04:24:59;3.10;;;2.90;;
13197;SDS011;6664;52.514;13.440;2022-09-13T04:27:28;18.87;;;3.50;;
13197;SDS011;6664;52.514;13.440;2022-09-13T04:29:54;5.13;;;3.70;;
13197;SDS011;6664;52.514;13.440;2022-09-13T04:32:24;4.50;;;4.10;;
13197;SDS011;6664;52.514;13.440;2022-09-13T04:34:50;3.17;;;2.97;;
13197;SDS011;6664;52.514;13.440;2022-09-13T04:37:22;3.70;;;3.40;;
13197;SDS011;6664;52.514;13.440;2022-09-13T04:39:49;3.00;;;2.80;;
13197;SDS011;6664;52.514;13.440;2022-09-13T04:42:16;3.20;;;2.90;;
13197;SDS011;6664;52.514;13.440;2022-09-13T04:44:44;4.07;;;3.30;;
13197;SDS011;6664;52.514;13.440;2022-09-13T04:47:11;3.10;;;2.90;;
13197;SDS011;6664;52.514;13.440;2022-09-13T04:49:38;4.10;;;3.17;;
13197;SDS011;6664;52.514;13.440;2022-09-13T04:52:09;4.13;;;3.00;;
13197;SDS011;6664;52.514;13.440;2022-09-13T04:54:39;3.57;;;3.27;;
13197;SDS011;6664;52.514;13.440;2022-09-13T04:57:05;3.83;;;3.53;;
13197;SDS011;6664;52.514;13.440;2022-09-13T04:59:32;4.50;;;3.87;;
13197;SDS011;6664;52.514;13.440;2022-09-13T05:01:59;4.57;;;3.60;;
13197;SDS011;6664;52.514;13.440;2022-09-13T05:04:26;4.37;;;4.00;;
13197;SDS011;6664;52.514;13.440;2022-09-13T05:06:55;3.40;;;3.20;;
13197;SDS011;6664;52.514;13.440;2022-09-13T05:09:25;4.47;;;4.10;;
13197;SDS011;6664;52.514;13.440;2022-09-13T05:11:52;4.00;;;3.63;;
13197;SDS011;6664;52.514;13.440;2022-09-13T05:14:21;4.20;;;3.90;;
13197;SDS011;6664;52.514;13.440;2022-09-13T05:16:50;3.97;;;3.57;;
13197;SDS011;6664;52.514;13.440;2022-09-13T05:19:17;4.03;;;3.73;;
13197;SDS011;6664;52.514;13.440;2022-09-13T05:21:44;4.60;;;4.20;;
13197;SDS011;6664;52.514;13.440;2022-09-13T05:24:11;4.00;;;3.70;;
13197;SDS011;6664;52.514;13.440;2022-09-13T05:26:38;4.23;;;3.93;;
13197;SDS011;6664;52.514;13.440;2022-09-13T05:29:04;3.40;;;3.20;;
13197;SDS011;6664;52.514;13.440;2022-09-13T05:31:32;5.57;;;3.87;;
13197;SDS011;6664;52.514;13.440;2022-09-13T05:34:06;3.60;;;3.30;;
13197;SDS011;6664;52.514;13.440;2022-09-13T05:36:36;4.20;;;3.80;;
13197;SDS011;6664;52.514;13.440;2022-09-13T05:39:06;3.53;;;3.23;;
13197;SDS011;6664;52.514;13.440;2022-09-13T05:41:58;5.07;;;3.63;;
13197;SDS011;6664;52.514;13.440;2022-09-13T05:44:29;4.00;;;3.57;;
13197;SDS011;6664;52.514;13.440;2022-09-13T05:46:56;5.17;;;4.63;;
13197;SDS011;6664;52.514;13.440;2022-09-13T05:49:23;3.80;;;3.40;;
13197;SDS011;6664;52.514;13.440;2022-09-13T05:51:50;5.03;;;3.33;;
13197;SDS011;6664;52.514;13.440;2022-09-13T05:54:19;3.50;;;3.27;;
13197;SDS011;6664;52.514;13.440;2022-09-13T05:56:48;4.13;;;3.73;;
13197;SDS011;6664;52.514;13.440;2022-09-13T05:59:17;5.80;;;3.77;;
13197;SDS011;6664;52.514;13.440;2022-09-13T06:01:44;4.30;;;3.90;;
13197;SDS011;6664;52.514;13.440;2022-09-13T06:04:13;6.83;;;3.97;;
13197;SDS011;6664;52.514;13.440;2022-09-13T06:06:42;4.87;;;3.93;;
13197;SDS011;6664;52.514;13.440;2022-09-13T06:09:11;5.00;;;4.33;;
13197;SDS011;6664;52.514;13.440;2022-09-13T06:11:41;6.73;;;4.27;;
13197;SDS011;6664;52.514;13.440;2022-09-13T06:14:09;6.20;;;5.37;;
13197;SDS011;6664;52.514;13.440;2022-09-13T06:16:36;5.97;;;4.27;;
13197;SDS011;6664;52.514;13.440;2022-09-13T06:19:03;5.30;;;4.80;;
13197;SDS011;6664;52.514;13.440;2022-09-13T06:21:30;8.03;;;5.27;;
13197;SDS011;6664;52.514;13.440;2022-09-13T06:24:00;4.77;;;4.23;;
13197;SDS011;6664;52.514;13.440;2022-09-13T06:26:29;4.77;;;4.20;;
13197;SDS011;6664;52.514;13.440;2022-09-13T06:28:57;7.10;;;4.80;;
13197;SDS011;6664;52.514;13.440;2022-09-13T06:31:25;7.57;;;5.40;;
13197;SDS011;6664;52.514;13.440;2022-09-13T06:33:56;5.20;;;4.53;;
13197;SDS011;6664;52.514;13.440;2022-09-13T06:36:25;5.30;;;4.57;;
13197;SDS011;6664;52.514;13.440;2022-09-13T06:38:56;6.97;;;5.40;;
13197;SDS011;6664;52.514;13.440;2022-09-13T06:41:25;11.63;;;5.47;;
13197;SDS011;6664;52.514;13.440;2022-09-13T06:43:53;5.10;;;4.60;;
13197;SDS011;6664;52.514;13.440;2022-09-13T06:46:26;5.47;;;4.80;;
13197;SDS011;6664;52.514;13.440;2022-09-13T06:48:57;7.20;;;5.47;;
13197;SDS011;6664;52.514;13.440;2022-09-13T06:51:25;9.97;;;4.73;;
13197;SDS011;6664;52.514;13.440;2022-09-13T06:53:52;9.90;;;6.10;;
13197;SDS011;6664;52.514;13.440;2022-09-13T06:56:26;5.00;;;4.30;;
13197;SDS011;6664;52.514;13.440;2022-09-13T06:58:56;6.97;;;4.63;;
13197;SDS011;6664;52.514;13.440;2022-09-13T07:01:26;5.13;;;4.50;;
13197;SDS011;6664;52.514;13.440;2022-09-13T07:03:57;7.77;;;5.60;;
13197;SDS011;6664;52.514;13.440;2022-09-13T07:06:38;7.73;;;5.27;;
13197;SDS011;6664;52.514;13.440;2022-09-13T07:09:10;7.13;;;5.13;;
13197;SDS011;6664;52.514;13.440;2022-09-13T07:11:40;4.83;;;4.30;;
13197;SDS011;6664;52.514;13.440;2022-09-13T07:14:10;5.10;;;4.60;;
13197;SDS011;6664;52.514;13.440;2022-09-13T07:16:45;6.27;;;5.27;;
13197;SDS011;6664;52.514;13.440;2022-09-13T07:19:16;5.03;;;4.43;;
13197;SDS011;6664;52.514;13.440;2022-09-13T07:21:45;7.70;;;5.10;;
13197;SDS011;6664;52.514;13.440;2022-09-13T07:24:14;5.33;;;4.83;;
13197;SDS011;6664;52.514;13.440;2022-09-13T07:26:42;8.80;;;5.20;;
13197;SDS011;6664;52.514;13.440;2022-09-13T07:29:10;8.33;;;4.87;;
13197;SDS011;6664;52.514;13.440;2022-09-13T07:31:42;7.30;;;5.30;;
13197;SDS011;6664;52.514;13.440;2022-09-13T07:34:12;5.10;;;4.67;;
13197;SDS011;6664;52.514;13.440;2022-09-13T07:36:40;6.20;;;5.07;;
13197;SDS011;6664;52.514;13.440;2022-09-13T07:39:10;4.63;;;4.23;;
13197;SDS011;6664;52.514;13.440;2022-09-13T07:41:42;5.63;;;5.20;;
13197;SDS011;6664;52.514;13.440;2022-09-13T07:44:12;6.23;;;4.93;;
13197;SDS011;6664;52.514;13.440;2022-09-13T07:46:39;6.17;;;5.10;;
13197;SDS011;6664;52.514;13.440;2022-09-13T07:49:12;5.60;;;5.10;;
13197;SDS011;6664;52.514;13.440;2022-09-13T07:51:42;5.40;;;4.90;;
13197;SDS011;6664;52.514;13.440;2022-09-13T07:54:13;7.27;;;5.33;;
13197;SDS011;6664;52.514;13.440;2022-09-13T07:56:41;5.40;;;4.90;;
13197;SDS011;6664;52.514;13.440;2022-09-13T07:59:14;10.80;;;4.80;;
13197;SDS011;6664;52.514;13.440;2022-09-13T08:01:45;5.33;;;4.90;;
13197;SDS011;6664;52.514;13.440;2022-09-13T08:04:23;10.40;;;5.10;;
13197;SDS011;6664;52.514;13.440;2022-09-13T08:06:51;5.57;;;4.97;;
13197;SDS011;6664;52.514;13.440;2022-09-13T08:09:18;5.93;;;4.90;;
13197;SDS011;6664;52.514;13.440;2022-09-13T08:11:48;7.50;;;5.10;;
13197;SDS011;6664;52.514;13.440;2022-09-13T08:14:18;7.80;;;5.07;;
13197;SDS011;6664;52.514;13.440;2022-09-13T08:16:47;5.17;;;4.67;;
13197;SDS011;6664;52.514;13.440;2022-09-13T08:19:19;6.53;;;5.30;;
13197;SDS011;6664;52.514;13.440;2022-09-13T08:21:46;5.70;;;4.53;;
13197;SDS011;6664;52.514;13.440;2022-09-13T08:24:17;5.30;;;4.80;;
13197;SDS011;6664;52.514;13.440;2022-09-13T08:26:46;5.43;;;4.50;;
13197;SDS011;6664;52.514;13.440;2022-09-13T08:29:13;4.93;;;4.43;;
13197;SDS011;6664;52.514;13.440;2022-09-13T08:31:41;5.60;;;5.00;;
13197;SDS011;6664;52.514;13.440;2022-09-13T08:34:09;5.03;;;4.53;;
13197;SDS011;6664;52.514;13.440;2022-09-13T08:36:40;4.73;;;4.30;;
13197;SDS011;6664;52.514;13.440;2022-09-13T08:39:08;7.50;;;4.80;;
13197;SDS011;6664;52.514;13.440;2022-09-13T08:41:45;5.73;;;5.20;;
13197;SDS011;6664;52.514;13.440;2022-09-13T08:44:35;6.93;;;5.50;;
13197;SDS011;6664;52.514;13.440;2022-09-13T08:47:30;7.43;;;4.97;;
13197;SDS011;6664;52.514;13.440;2022-09-13T08:50:16;5.53;;;4.97;;
13197;SDS011;6664;52.514;13.440;2022-09-13T08:52:59;8.47;;;4.83;;
13197;SDS011;6664;52.514;13.440;2022-09-13T09:01:07;8.73;;;5.10;;
13197;SDS011;6664;52.514;13.440;2022-09-13T09:06:32;12.87;;;5.53;;
13197;SDS011;6664;52.514;13.440;2022-09-13T09:09:05;6.80;;;4.93;;
13197;SDS011;6664;52.514;13.440;2022-09-13T09:11:50;9.13;;;5.30;;
13197;SDS011;6664;52.514;13.440;2022-09-13T09:17:00;7.10;;;5.50;;
13197;SDS011;6664;52.514;13.440;2022-09-13T09:19:32;5.90;;;4.70;;
13197;SDS011;6664;52.514;13.440;2022-09-13T09:22:10;8.57;;;5.40;;
13197;SDS011;6664;52.514;13.440;2022-09-13T09:24:46;6.37;;;5.40;;
13197;SDS011;6664;52.514;13.440;2022-09-13T09:27:17;5.00;;;4.43;;
13197;SDS011;6664;52.514;13.440;2022-09-13T09:29:48;5.63;;;5.10;;
13197;SDS011;6664;52.514;13.440;2022-09-13T09:37:49;6.07;;;4.70;;
13197;SDS011;6664;52.514;13.440;2022-09-13T09:40:28;5.47;;;4.33;;
13197;SDS011;6664;52.514;13.440;2022-09-13T09:43:08;5.90;;;5.10;;
13197;SDS011;6664;52.514;13.440;2022-09-13T09:45:51;10.93;;;5.30;;
13197;SDS011;6664;52.514;13.440;2022-09-13T09:48:23;5.90;;;5.20;;
13197;SDS011;6664;52.514;13.440;2022-09-13T09:50:57;5.20;;;4.73;;
13197;SDS011;6664;52.514;13.440;2022-09-13T09:53:29;6.70;;;5.40;;
13197;SDS011;6664;52.514;13.440;2022-09-13T09:58:48;8.00;;;4.10;;
13197;SDS011;6664;52.514;13.440;2022-09-13T10:01:20;7.23;;;4.80;;
13197;SDS011;6664;52.514;13.440;2022-09-13T10:03:50;4.43;;;3.97;;
13197;SDS011;6664;52.514;13.440;2022-09-13T10:06:27;5.23;;;4.70;;
13197;SDS011;6664;52.514;13.440;2022-09-13T10:09:03;4.47;;;4.07;;
13197;SDS011;6664;52.514;13.440;2022-09-13T10:11:52;5.00;;;4.50;;
13197;SDS011;6664;52.514;13.440;2022-09-13T10:19:50;7.10;;;4.50;;
13197;SDS011;6664;52.514;13.440;2022-09-13T10:22:19;4.37;;;3.90;;
13197;SDS011;6664;52.514;13.440;2022-09-13T10:24:51;5.30;;;4.80;;
13197;SDS011;6664;52.514;13.440;2022-09-13T10:27:33;12.83;;;4.53;;
13197;SDS011;6664;52.514;13.440;2022-09-13T10:30:05;4.07;;;3.67;;
13197;SDS011;6664;52.514;13.440;2022-09-13T10:32:35;3.97;;;3.67;;
13197;SDS011;6664;52.514;13.440;2022-09-13T10:35:06;5.07;;;3.77;;
13197;SDS011;6664;52.514;13.440;2022-09-13T10:37:44;6.53;;;4.50;;
13197;SDS011;6664;52.514;13.440;2022-09-13T10:40:28;5.27;;;4.03;;
13197;SDS011;6664;52.514;13.440;2022-09-13T10:42:59;6.67;;;4.93;;
13197;SDS011;6664;52.514;13.440;2022-09-13T10:45:32;9.30;;;4.30;;
13197;SDS011;6664;52.514;13.440;2022-09-13T10:48:04;4.90;;;4.40;;
13197;SDS011;6664;52.514;13.440;2022-09-13T10:50:34;5.93;;;4.20;;
13197;SDS011;6664;52.514;13.440;2022-09-13T10:53:03;6.53;;;5.03;;
13197;SDS011;6664;52.514;13.440;2022-09-13T10:56:22;7.00;;;4.53;;
13197;SDS011;6664;52.514;13.440;2022-09-13T10:58:57;6.70;;;4.10;;
13197;SDS011;6664;52.514;13.440;2022-09-13T11:01:47;7.10;;;5.20;;
13197;SDS011;6664;52.514;13.440;2022-09-13T11:09:59;7.00;;;4.93;;
13197;SDS011;6664;52.514;13.440;2022-09-13T11:12:49;5.07;;;4.50;;
13197;SDS011;6664;52.514;13.440;2022-09-13T11:15:42;6.90;;;5.20;;
13197;SDS011;6664;52.514;13.440;2022-09-13T11:18:27;7.43;;;5.70;;
13197;SDS011;6664;52.514;13.440;2022-09-13T11:29:34;6.93;;;5.80;;
13197;SDS011;6664;52.514;13.440;2022-09-13T11:56:54;7.20;;;4.97;;
13197;SDS011;6664;52.514;13.440;2022-09-13T11:59:52;8.47;;;5.70;;
13197;SDS011;6664;52.514;13.440;2022-09-13T12:02:25;6.40;;;5.00;;
13197;SDS011;6664;52.514;13.440;2022-09-13T12:05:04;6.33;;;5.57;;
13197;SDS011;6664;52.514;13.440;2022-09-13T12:12:50;7.57;;;5.80;;
13197;SDS011;6664;52.514;13.440;2022-09-13T12:15:27;5.47;;;4.90;;
13197;SDS011;6664;52.514;13.440;2022-09-13T12:18:04;7.50;;;5.63;;
13197;SDS011;6664;52.514;13.440;2022-09-13T12:20:49;5.97;;;5.47;;
13197;SDS011;6664;52.514;13.440;2022-09-13T12:23:23;9.37;;;5.77;;
13197;SDS011;6664;52.514;13.440;2022-09-13T12:26:02;8.67;;;5.33;;
13197;SDS011;6664;52.514;13.440;2022-09-13T12:28:39;5.90;;;5.30;;
13197;SDS011;6664;52.514;13.440;2022-09-13T12:31:16;6.30;;;5.40;;
13197;SDS011;6664;52.514;13.440;2022-09-13T12:33:54;11.40;;;6.30;;
13197;SDS011;6664;52.514;13.440;2022-09-13T12:50:15;7.63;;;6.67;;
13197;SDS011;6664;52.514;13.440;2022-09-13T13:01:44;8.37;;;6.80;;
13197;SDS011;6664;52.514;13.440;2022-09-13T13:04:22;8.80;;;6.37;;
13197;SDS011;6664;52.514;13.440;2022-09-13T13:06:57;14.43;;;7.07;;
13197;SDS011;6664;52.514;13.440;2022-09-13T13:12:50;9.73;;;6.40;;
13197;SDS011;6664;52.514;13.440;2022-09-13T13:17:52;6.67;;;5.97;;
13197;SDS011;6664;52.514;13.440;2022-09-13T13:23:31;7.70;;;6.87;;
13197;SDS011;6664;52.514;13.440;2022-09-13T13:33:58;11.30;;;6.67;;
13197;SDS011;6664;52.514;13.440;2022-09-13T13:41:54;14.60;;;5.57;;
13197;SDS011;6664;52.514;13.440;2022-09-13T14:08:09;4.00;;;3.70;;
13197;SDS011;6664;52.514;13.440;2022-09-13T14:19:14;4.10;;;3.20;;
13197;SDS011;6664;52.514;13.440;2022-09-13T14:22:09;5.73;;;3.77;;
13197;SDS011;6664;52.514;13.440;2022-09-13T14:24:47;3.67;;;3.00;;
13197;SDS011;6664;52.514;13.440;2022-09-13T14:27:25;3.07;;;2.60;;
13197;SDS011;6664;52.514;13.440;2022-09-13T14:30:02;3.37;;;3.07;;
13197;SDS011;6664;52.514;13.440;2022-09-13T14:32:42;2.80;;;2.60;;
13197;SDS011;6664;52.514;13.440;2022-09-13T14:35:29;3.47;;;3.17;;
13197;SDS011;6664;52.514;13.440;2022-09-13T14:38:12;3.50;;;3.20;;
13197;SDS011;6664;52.514;13.440;2022-09-13T14:40:39;4.70;;;3.03;;
13197;SDS011;6664;52.514;13.440;2022-09-13T14:43:18;3.40;;;3.20;;
13197;SDS011;6664;52.514;13.440;2022-09-13T14:45:47;3.10;;;2.80;;
13197;SDS011;6664;52.514;13.440;2022-09-13T14:48:24;2.90;;;2.60;;
13197;SDS011;6664;52.514;13.440;2022-09-13T14:50:59;2.67;;;2.47;;
13197;SDS011;6664;52.514;13.440;2022-09-13T14:53:30;2.67;;;2.47;;
13197;SDS011;6664;52.514;13.440;2022-09-13T14:56:04;3.30;;;3.03;;
13197;SDS011;6664;52.514;13.440;2022-09-13T14:58:38;4.80;;;2.80;;
13197;SDS011;6664;52.514;13.440;2022-09-13T15:01:32;2.80;;;2.60;;
13197;SDS011;6664;52.514;13.440;2022-09-13T15:03:59;4.83;;;2.80;;
13197;SDS011;6664;52.514;13.440;2022-09-13T15:06:29;4.00;;;3.00;;
13197;SDS011;6664;52.514;13.440;2022-09-13T15:11:41;3.13;;;2.83;;
13197;SDS011;6664;52.514;13.440;2022-09-13T15:22:11;4.20;;;3.20;;
13197;SDS011;6664;52.514;13.440;2022-09-13T15:24:41;5.10;;;3.13;;
13197;SDS011;6664;52.514;13.440;2022-09-13T15:27:18;8.83;;;3.87;;
13197;SDS011;6664;52.514;13.440;2022-09-13T15:30:21;4.37;;;3.97;;
13197;SDS011;6664;52.514;13.440;2022-09-13T15:35:39;3.50;;;3.20;;
13197;SDS011;6664;52.514;13.440;2022-09-13T15:40:47;4.30;;;3.47;;
13197;SDS011;6664;52.514;13.440;2022-09-13T15:43:27;4.30;;;3.90;;
13197;SDS011;6664;52.514;13.440;2022-09-13T15:45:55;4.37;;;3.50;;
13197;SDS011;6664;52.514;13.440;2022-09-13T15:48:28;4.33;;;3.87;;
13197;SDS011;6664;52.514;13.440;2022-09-13T15:51:17;3.67;;;3.43;;
13197;SDS011;6664;52.514;13.440;2022-09-13T15:53:44;3.77;;;3.47;;
13197;SDS011;6664;52.514;13.440;2022-09-13T15:56:15;4.50;;;4.10;;
13197;SDS011;6664;52.514;13.440;2022-09-13T15:58:49;4.70;;;3.83;;
13197;SDS011;6664;52.514;13.440;2022-09-13T16:01:16;4.13;;;3.53;;
13197;SDS011;6664;52.514;13.440;2022-09-13T16:03:43;4.50;;;3.17;;
13197;SDS011;6664;52.514;13.440;2022-09-13T16:06:10;4.13;;;3.70;;
13197;SDS011;6664;52.514;13.440;2022-09-13T16:08:40;5.13;;;3.57;;
13197;SDS011;6664;52.514;13.440;2022-09-13T16:11:07;6.53;;;4.30;;
13197;SDS011;6664;52.514;13.440;2022-09-13T16:13:34;3.73;;;3.40;;
13197;SDS011;6664;52.514;13.440;2022-09-13T16:16:02;10.00;;;4.00;;
13197;SDS011;6664;52.514;13.440;2022-09-13T16:18:31;3.70;;;3.37;;
13197;SDS011;6664;52.514;13.440;2022-09-13T16:20:58;4.60;;;3.20;;
13197;SDS011;6664;52.514;13.440;2022-09-13T16:23:25;4.27;;;3.47;;
13197;SDS011;6664;52.514;13.440;2022-09-13T16:25:54;6.03;;;3.67;;
13197;SDS011;6664;52.514;13.440;2022-09-13T16:28:22;5.27;;;3.53;;
13197;SDS011;6664;52.514;13.440;2022-09-13T16:30:50;5.63;;;3.60;;
13197;SDS011;6664;52.514;13.440;2022-09-13T16:33:17;4.50;;;3.37;;
13197;SDS011;6664;52.514;13.440;2022-09-13T16:35:47;3.83;;;3.43;;
13197;SDS011;6664;52.514;13.440;2022-09-13T16:38:14;3.90;;;3.43;;
13197;SDS011;6664;52.514;13.440;2022-09-13T16:40:41;4.30;;;3.57;;
13197;SDS011;6664;52.514;13.440;2022-09-13T16:43:08;6.80;;;2.97;;
13197;SDS011;6664;52.514;13.440;2022-09-13T16:45:38;6.70;;;3.60;;
13197;SDS011;6664;52.514;13.440;2022-09-13T16:48:10;3.60;;;3.30;;
13197;SDS011;6664;52.514;13.440;2022-09-13T16:50:40;4.73;;;3.30;;
13197;SDS011;6664;52.514;13.440;2022-09-13T16:53:07;3.93;;;3.50;;
13197;SDS011;6664;52.514;13.440;2022-09-13T16:55:34;4.20;;;3.50;;
13197;SDS011;6664;52.514;13.440;2022-09-13T16:58:01;4.57;;;3.83;;
13197;SDS011;6664;52.514;13.440;2022-09-13T17:00:28;4.60;;;3.57;;
13197;SDS011;6664;52.514;13.440;2022-09-13T17:02:55;6.13;;;3.37;;
13197;SDS011;6664;52.514;13.440;2022-09-13T17:05:23;4.17;;;2.93;;
13197;SDS011;6664;52.514;13.440;2022-09-13T17:07:51;3.10;;;2.63;;
13197;SDS011;6664;52.514;13.440;2022-09-13T17:10:18;4.40;;;3.80;;
13197;SDS011;6664;52.514;13.440;2022-09-13T17:12:46;4.20;;;3.63;;
13197;SDS011;6664;52.514;13.440;2022-09-13T17:15:13;4.27;;;3.83;;
13197;SDS011;6664;52.514;13.440;2022-09-13T17:17:40;4.90;;;3.37;;
13197;SDS011;6664;52.514;13.440;2022-09-13T17:20:08;4.13;;;3.73;;
13197;SDS011;6664;52.514;13.440;2022-09-13T17:22:37;3.87;;;3.50;;
13197;SDS011;6664;52.514;13.440;2022-09-13T17:25:06;3.43;;;3.13;;
13197;SDS011;6664;52.514;13.440;2022-09-13T17:27:34;3.27;;;2.97;;
13197;SDS011;6664;52.514;13.440;2022-09-13T17:30:01;3.57;;;3.27;;
13197;SDS011;6664;52.514;13.440;2022-09-13T17:32:30;3.47;;;3.27;;
13197;SDS011;6664;52.514;13.440;2022-09-13T17:34:59;3.50;;;3.20;;
13197;SDS011;6664;52.514;13.440;2022-09-13T17:37:28;3.23;;;2.93;;
13197;SDS011;6664;52.514;13.440;2022-09-13T17:39:55;3.30;;;3.00;;
13197;SDS011;6664;52.514;13.440;2022-09-13T17:42:22;5.00;;;3.90;;
13197;SDS011;6664;52.514;13.440;2022-09-13T17:44:49;3.70;;;3.40;;
13197;SDS011;6664;52.514;13.440;2022-09-13T17:47:16;3.97;;;3.30;;
13197;SDS011;6664;52.514;13.440;2022-09-13T17:49:45;5.77;;;3.53;;
13197;SDS011;6664;52.514;13.440;2022-09-13T17:52:12;3.37;;;3.07;;
13197;SDS011;6664;52.514;13.440;2022-09-13T17:54:42;4.63;;;2.80;;
13197;SDS011;6664;52.514;13.440;2022-09-13T17:57:09;3.30;;;2.97;;
13197;SDS011;6664;52.514;13.440;2022-09-13T17:59:41;4.30;;;2.77;;
13197;SDS011;6664;52.514;13.440;2022-09-13T18:02:07;2.97;;;2.20;;
13197;SDS011;6664;52.514;13.440;2022-09-13T18:04:35;3.37;;;3.07;;
13197;SDS011;6664;52.514;13.440;2022-09-13T18:07:05;2.73;;;2.53;;
13197;SDS011;6664;52.514;13.440;2022-09-13T18:09:32;3.20;;;2.93;;
13197;SDS011;6664;52.514;13.440;2022-09-13T18:11:58;4.40;;;3.30;;
13197;SDS011;6664;52.514;13.440;2022-09-13T18:14:25;3.10;;;2.80;;
13197;SDS011;6664;52.514;13.440;2022-09-13T18:16:52;2.93;;;2.73;;
13197;SDS011;6664;52.514;13.440;2022-09-13T18:19:23;2.47;;;2.27;;
13197;SDS011;6664;52.514;13.440;2022-09-13T18:22:10;2.20;;;2.07;;
13197;SDS011;6664;52.514;13.440;2022-09-13T18:24:40;2.93;;;2.63;;
13197;SDS011;6664;52.514;13.440;2022-09-13T18:27:07;2.63;;;2.43;;
13197;SDS011;6664;52.514;13.440;2022-09-13T18:29:36;3.43;;;2.63;;
13197;SDS011;6664;52.514;13.440;2022-09-13T18:32:03;2.10;;;2.00;;
13197;SDS011;6664;52.514;13.440;2022-09-13T18:34:32;2.27;;;2.17;;
13197;SDS011;6664;52.514;13.440;2022-09-13T18:36:58;3.23;;;2.87;;
13197;SDS011;6664;52.514;13.440;2022-09-13T18:39:28;3.70;;;2.43;;
13197;SDS011;6664;52.514;13.440;2022-09-13T18:41:54;2.80;;;2.60;;
13197;SDS011;6664;52.514;13.440;2022-09-13T18:44:21;2.90;;;2.63;;
13197;SDS011;6664;52.514;13.440;2022-09-13T18:46:48;2.30;;;2.10;;
13197;SDS011;6664;52.514;13.440;2022-09-13T18:49:19;3.27;;;2.97;;